Terminal Aerodrome Forecast
Issued by NWS Cleveland, OH

Home | Current Version | Previous Version | Graphics & Text | Print | Product List | Glossary Off
Versions: 1 2 3 4 5 6 7 8 9 10 11 12 13 14

000
FTUS41 KCLE 211700
TAFYNG
TAF
KYNG 211731Z 2118/2218 VRB03KT P6SM OVC025
     FM212300 11004KT P6SM BKN025 OVC035
     FM220400 11005KT P6SM SCT035 OVC250
     FM221500 13008KT P6SM SCT030 BKN250=

USA.gov is the U.S. government's official web portal to all federal, state and local government web resources and services.